createdAt,value
2024-04-18T00:01:03.978Z,94.97
2024-04-18T00:03:31.834Z,95.48
2024-04-18T00:05:58.859Z,96.27
2024-04-18T00:08:25.660Z,96.04
2024-04-18T00:10:55.318Z,95.86
2024-04-18T00:13:22.051Z,96.55
2024-04-18T00:15:48.890Z,96.22
2024-04-18T00:18:15.764Z,97.55
2024-04-18T00:20:42.558Z,99.11
2024-04-18T00:23:09.355Z,98.79
2024-04-18T00:25:36.124Z,98.75
2024-04-18T00:28:02.952Z,100.00
2024-04-18T00:30:29.763Z,99.48
2024-04-18T00:32:56.602Z,100.00
2024-04-18T00:35:23.341Z,99.59
2024-04-18T00:37:50.197Z,100.00
2024-04-18T00:40:16.994Z,100.00
2024-04-18T00:42:43.769Z,100.00
2024-04-18T00:45:10.701Z,100.00
2024-04-18T00:47:38.170Z,100.00
2024-04-18T00:50:08.695Z,100.00
2024-04-18T00:52:35.665Z,100.00
2024-04-18T00:55:04.558Z,100.00
2024-04-18T00:57:33.559Z,100.00
2024-04-18T01:00:00.799Z,100.00
2024-04-18T01:02:28.866Z,100.00
2024-04-18T01:04:55.966Z,100.00
2024-04-18T01:07:22.939Z,100.00
2024-04-18T01:09:51.309Z,100.00
2024-04-18T01:12:18.142Z,100.00
2024-04-18T01:14:45.001Z,100.00
2024-04-18T01:17:12.284Z,100.00
2024-04-18T01:19:39.781Z,100.00
2024-04-18T01:22:06.571Z,100.00
2024-04-18T01:24:33.738Z,100.00
2024-04-18T01:27:00.844Z,100.00
2024-04-18T01:29:28.311Z,100.00
2024-04-18T01:31:55.210Z,100.00
2024-04-18T01:34:22.099Z,100.00
2024-04-18T01:36:49.811Z,100.00
2024-04-18T01:39:16.963Z,100.00
2024-04-18T01:41:43.823Z,100.00
2024-04-18T01:44:11.867Z,100.00
2024-04-18T01:46:38.732Z,100.00
2024-04-18T01:49:05.691Z,100.00
2024-04-18T01:51:32.536Z,100.00
2024-04-18T01:53:59.263Z,100.00
2024-04-18T01:56:26.009Z,100.00
2024-04-18T01:58:52.784Z,100.00
2024-04-18T02:01:24.679Z,100.00
2024-04-18T02:03:52.095Z,100.00
2024-04-18T02:06:19.061Z,100.00
2024-04-18T02:08:45.985Z,100.00
2024-04-18T02:11:12.972Z,100.00
2024-04-18T02:13:39.933Z,100.00
2024-04-18T02:16:06.738Z,100.00
2024-04-18T02:18:33.730Z,100.00
2024-04-18T02:21:00.719Z,100.00
2024-04-18T02:23:27.756Z,100.00
2024-04-18T02:25:54.575Z,100.00
2024-04-18T02:28:21.653Z,100.00
2024-04-18T02:30:48.575Z,100.00
2024-04-18T02:33:17.504Z,100.00
2024-04-18T02:35:44.781Z,100.00
2024-04-18T02:38:11.803Z,100.00
2024-04-18T02:40:38.746Z,100.00
2024-04-18T02:43:05.545Z,100.00
2024-04-18T02:45:32.477Z,100.00
2024-04-18T02:47:59.435Z,100.00
2024-04-18T02:50:26.223Z,100.00
2024-04-18T02:52:53.074Z,100.00
2024-04-18T02:55:19.849Z,100.00
2024-04-18T02:57:46.818Z,100.00
2024-04-18T03:00:13.960Z,100.00
2024-04-18T03:02:40.786Z,100.00
2024-04-18T03:05:07.579Z,100.00
2024-04-18T03:07:34.399Z,100.00
2024-04-18T03:10:01.165Z,100.00
2024-04-18T03:12:28.449Z,100.00
2024-04-18T03:14:55.518Z,100.00
2024-04-18T03:17:22.339Z,100.00
2024-04-18T03:19:49.112Z,100.00
2024-04-18T03:22:17.511Z,100.00
2024-04-18T03:24:44.414Z,100.00
2024-04-18T03:27:11.249Z,100.00
2024-04-18T03:29:38.034Z,100.00
2024-04-18T03:32:05.430Z,100.00
2024-04-18T03:34:32.397Z,100.00
2024-04-18T03:36:59.221Z,100.00
2024-04-18T03:39:29.489Z,100.00
2024-04-18T03:41:56.271Z,100.00
2024-04-18T03:44:23.161Z,100.00
2024-04-18T03:46:49.927Z,100.00
2024-04-18T03:49:16.767Z,100.00
2024-04-18T03:51:43.563Z,100.00
2024-04-18T03:54:10.461Z,100.00
2024-04-18T03:56:37.197Z,100.00
2024-04-18T03:59:04.136Z,100.00
2024-04-18T04:01:31.253Z,100.00
2024-04-18T04:03:58.569Z,100.00
2024-04-18T04:06:25.610Z,100.00
2024-04-18T04:08:52.556Z,100.00
2024-04-18T04:11:19.860Z,100.00
2024-04-18T04:13:47.012Z,100.00
2024-04-18T04:16:13.953Z,100.00
2024-04-18T04:18:41.017Z,100.00
2024-04-18T04:21:09.043Z,100.00
2024-04-18T04:23:37.631Z,100.00
2024-04-18T04:26:04.587Z,100.00
2024-04-18T04:28:31.328Z,100.00
2024-04-18T04:30:58.153Z,100.00
2024-04-18T04:33:28.755Z,100.00
2024-04-18T04:35:56.126Z,100.00
2024-04-18T04:38:22.962Z,100.00
2024-04-18T04:40:49.719Z,100.00
2024-04-18T04:43:16.604Z,100.00
2024-04-18T04:45:43.355Z,100.00
2024-04-18T04:48:10.207Z,100.00
2024-04-18T04:50:42.058Z,100.00
2024-04-18T04:53:09.025Z,100.00
2024-04-18T04:55:35.811Z,100.00
2024-04-18T04:58:03.165Z,100.00
2024-04-18T05:00:30.073Z,100.00
2024-04-18T05:02:57.032Z,100.00
2024-04-18T05:05:23.907Z,100.00
2024-04-18T05:07:54.828Z,100.00
2024-04-18T05:10:22.321Z,100.00
2024-04-18T05:12:50.567Z,100.00
2024-04-18T05:15:17.785Z,100.00
2024-04-18T05:17:44.686Z,100.00
2024-04-18T05:20:12.243Z,100.00
2024-04-18T05:22:39.032Z,100.00
2024-04-18T05:25:06.157Z,100.00
2024-04-18T05:27:33.960Z,100.00
2024-04-18T05:30:19.377Z,100.00
2024-04-18T05:32:46.428Z,100.00
2024-04-18T05:35:13.923Z,100.00
2024-04-18T05:37:40.755Z,100.00
2024-04-18T05:40:08.289Z,100.00
2024-04-18T05:42:35.063Z,100.00
2024-04-18T05:45:01.974Z,100.00
2024-04-18T05:47:29.397Z,100.00
2024-04-18T05:49:57.822Z,100.00
2024-04-18T05:52:24.582Z,100.00
2024-04-18T05:54:51.602Z,100.00
2024-04-18T05:57:18.453Z,100.00
2024-04-18T05:59:45.258Z,100.00
2024-04-18T06:02:13.734Z,100.00
2024-04-18T06:04:40.728Z,100.00
2024-04-18T06:07:07.579Z,100.00
2024-04-18T06:09:34.326Z,100.00
2024-04-18T06:12:01.081Z,100.00
2024-04-18T06:14:27.817Z,100.00
2024-04-18T06:16:54.683Z,100.00
2024-04-18T06:19:21.429Z,100.00
2024-04-18T06:21:48.172Z,100.00
2024-04-18T06:24:16.347Z,100.00
2024-04-18T06:26:43.091Z,100.00
2024-04-18T06:29:11.565Z,100.00
2024-04-18T06:31:38.316Z,100.00
2024-04-18T06:34:05.807Z,100.00
2024-04-18T06:36:33.009Z,100.00
2024-04-18T06:39:00.406Z,100.00
2024-04-18T06:41:27.221Z,100.00
2024-04-18T06:43:53.938Z,100.00
2024-04-18T06:46:21.240Z,100.00
2024-04-18T06:48:48.170Z,100.00
2024-04-18T06:51:15.088Z,100.00
2024-04-18T06:53:41.913Z,100.00
2024-04-18T06:56:08.721Z,100.00
2024-04-18T06:58:35.506Z,100.00
2024-04-18T07:01:02.477Z,100.00
2024-04-18T07:03:29.486Z,100.00
2024-04-18T07:05:56.368Z,99.82
2024-04-18T07:08:25.597Z,98.96
2024-04-18T07:10:53.230Z,100.00
2024-04-18T07:13:20.901Z,100.00
2024-04-18T07:15:47.727Z,100.00
2024-04-18T07:18:14.608Z,100.00
2024-04-18T07:20:41.461Z,99.87
2024-04-18T07:23:08.300Z,99.88
2024-04-18T07:25:38.564Z,99.60
2024-04-18T07:28:05.399Z,96.22
2024-04-18T07:30:32.851Z,95.05
2024-04-18T07:32:59.858Z,94.76
2024-04-18T07:35:26.865Z,94.96
2024-04-18T07:37:53.665Z,95.42
2024-04-18T07:40:22.591Z,91.98
2024-04-18T07:42:52.887Z,90.56
2024-04-18T07:45:20.175Z,90.94
2024-04-18T07:47:47.296Z,89.41
2024-04-18T07:50:14.494Z,88.30
2024-04-18T07:52:44.983Z,88.47
2024-04-18T07:55:17.199Z,87.52
2024-04-18T07:57:44.586Z,89.38
2024-04-18T08:00:12.791Z,88.38
2024-04-18T08:02:42.122Z,85.98
2024-04-18T08:05:11.680Z,86.15
2024-04-18T08:07:42.252Z,87.96
2024-04-18T08:10:13.809Z,86.12
2024-04-18T08:12:45.740Z,83.53
2024-04-18T08:15:18.119Z,83.64
2024-04-18T08:17:47.803Z,84.11
2024-04-18T08:20:14.738Z,84.90
2024-04-18T08:22:41.647Z,84.97
2024-04-18T08:25:08.832Z,83.55
2024-04-18T08:27:36.752Z,84.87
2024-04-18T08:30:04.512Z,84.33
2024-04-18T08:32:31.399Z,83.47
2024-04-18T08:34:58.226Z,84.03
2024-04-18T08:37:24.984Z,83.96
2024-04-18T08:39:51.789Z,83.74
2024-04-18T08:42:27.477Z,83.71
2024-04-18T08:44:57.307Z,81.66
2024-04-18T08:47:28.432Z,80.44
2024-04-18T08:49:55.750Z,80.85
2024-04-18T08:52:23.076Z,80.48
2024-04-18T08:54:50.004Z,80.76
2024-04-18T08:57:22.616Z,80.89
2024-04-18T08:59:55.219Z,82.26
2024-04-18T09:02:22.067Z,83.73
2024-04-18T09:04:48.993Z,84.54
2024-04-18T09:07:15.805Z,86.85
2024-04-18T09:09:42.572Z,87.97
2024-04-18T09:12:09.467Z,88.37
2024-04-18T09:14:36.324Z,89.67
2024-04-18T09:17:03.056Z,88.51
2024-04-18T09:19:29.843Z,88.41
2024-04-18T09:22:00.439Z,87.86
2024-04-18T09:24:27.546Z,88.17
2024-04-18T09:26:54.293Z,87.54
2024-04-18T09:29:22.653Z,87.40
2024-04-18T09:31:49.827Z,88.02
2024-04-18T09:34:19.729Z,88.63
2024-04-18T09:36:47.051Z,88.02
2024-04-18T09:39:27.627Z,89.59
2024-04-18T09:42:02.316Z,87.57
2024-04-18T09:44:32.187Z,87.02
2024-04-18T09:47:00.182Z,88.12
2024-04-18T09:49:28.392Z,86.87
2024-04-18T09:51:57.091Z,85.01
2024-04-18T09:54:24.294Z,84.07
2024-04-18T09:56:53.196Z,85.56
2024-04-18T09:59:22.163Z,85.50
2024-04-18T10:01:50.242Z,85.83
2024-04-18T10:04:17.195Z,86.51
2024-04-18T10:06:47.554Z,88.50
2024-04-18T10:09:17.005Z,87.85
2024-04-18T10:11:44.341Z,87.23
2024-04-18T10:14:11.223Z,86.84
2024-04-18T10:16:56.217Z,86.36
2024-04-18T10:19:30.674Z,85.17
2024-04-18T10:24:36.614Z,81.02
2024-04-18T10:27:09.034Z,79.26
2024-04-18T10:29:36.098Z,79.15
2024-04-18T10:32:05.980Z,79.35
2024-04-18T10:34:34.222Z,78.13
2024-04-18T10:37:09.554Z,77.44
2024-04-18T10:39:41.951Z,77.04
2024-04-18T10:42:10.058Z,76.03
2024-04-18T10:44:38.070Z,76.80
2024-04-18T10:47:08.664Z,74.00
2024-04-18T10:49:35.742Z,75.20
2024-04-18T10:52:02.702Z,75.06
2024-04-18T10:54:29.480Z,76.40
2024-04-18T10:56:56.656Z,75.29
2024-04-18T10:59:23.534Z,75.01
2024-04-18T11:01:50.424Z,75.56
2024-04-18T11:04:17.220Z,74.96
2024-04-18T11:06:45.310Z,74.18
2024-04-18T11:09:12.219Z,72.69
2024-04-18T11:11:39.843Z,72.80
2024-04-18T11:14:08.061Z,70.87
2024-04-18T11:16:36.243Z,70.56
2024-04-18T11:19:03.421Z,71.18
2024-04-18T11:21:30.727Z,69.20
2024-04-18T11:23:58.214Z,68.95
2024-04-18T11:26:29.522Z,67.93
2024-04-18T11:28:57.976Z,67.65
2024-04-18T11:31:24.920Z,67.06
2024-04-18T11:33:52.443Z,62.36
2024-04-18T11:36:20.212Z,59.91
2024-04-18T11:38:48.245Z,60.92
2024-04-18T11:41:15.176Z,59.54
2024-04-18T11:43:42.503Z,57.27
2024-04-18T11:46:09.367Z,57.27
2024-04-18T11:48:36.804Z,55.96
2024-04-18T11:51:04.076Z,54.14
2024-04-18T11:53:31.725Z,53.14
2024-04-18T11:55:59.999Z,53.70
2024-04-18T11:58:27.526Z,53.61
2024-04-18T12:00:54.299Z,52.49
2024-04-18T12:03:21.509Z,51.68
2024-04-18T12:05:48.364Z,51.21
2024-04-18T12:08:15.106Z,52.72
2024-04-18T12:10:41.861Z,51.62
2024-04-18T12:13:08.684Z,50.86
2024-04-18T12:15:35.651Z,50.90
2024-04-18T12:18:03.882Z,50.96
2024-04-18T12:20:30.770Z,50.00
2024-04-18T12:22:57.512Z,48.27
2024-04-18T12:25:24.374Z,46.84
2024-04-18T12:27:51.243Z,46.06
2024-04-18T12:30:18.103Z,47.02
2024-04-18T12:32:45.049Z,45.66
2024-04-18T12:35:12.045Z,42.93
2024-04-18T12:37:38.786Z,43.31
2024-04-18T12:40:06.668Z,46.22
2024-04-18T12:42:35.242Z,48.89
2024-04-18T12:45:02.286Z,48.55
2024-04-18T12:47:29.691Z,48.87
2024-04-18T12:49:56.759Z,49.06
2024-04-18T12:52:23.731Z,49.88
2024-04-18T12:54:50.595Z,50.43
2024-04-18T12:57:17.442Z,51.80
2024-04-18T12:59:44.556Z,50.72
2024-04-18T13:02:13.205Z,48.81
2024-04-18T13:04:40.143Z,48.99
2024-04-18T13:07:07.323Z,47.78
2024-04-18T13:09:34.550Z,48.21
2024-04-18T13:12:05.670Z,48.03
2024-04-18T13:14:32.596Z,46.24
2024-04-18T13:16:59.436Z,45.42
2024-04-18T13:19:26.221Z,43.12
2024-04-18T13:21:53.656Z,41.41
2024-04-18T13:24:24.009Z,42.84
2024-04-18T13:26:51.479Z,44.00
2024-04-18T13:29:19.063Z,43.70
2024-04-18T13:31:49.052Z,42.54
2024-04-18T13:34:15.822Z,44.66
2024-04-18T13:36:42.716Z,45.15
2024-04-18T13:39:10.100Z,44.58
2024-04-18T13:41:42.212Z,45.32
2024-04-18T13:44:08.957Z,46.24
2024-04-18T13:46:36.077Z,47.75
2024-04-18T13:49:03.030Z,47.08
2024-04-18T13:51:30.037Z,48.15
2024-04-18T13:53:57.527Z,47.77
2024-04-18T13:56:24.742Z,45.67
2024-04-18T13:58:51.570Z,45.13
2024-04-18T14:01:18.328Z,44.02
2024-04-18T14:03:45.183Z,43.57
2024-04-18T14:06:12.034Z,45.04
2024-04-18T14:08:42.650Z,42.87
2024-04-18T14:11:09.545Z,43.88
2024-04-18T14:13:36.473Z,44.53
2024-04-18T14:16:22.215Z,45.62
2024-04-18T14:18:52.202Z,46.90
2024-04-18T14:21:19.818Z,46.21
2024-04-18T14:23:46.660Z,45.61
2024-04-18T14:26:13.429Z,43.58
2024-04-18T14:28:40.203Z,40.52
2024-04-18T14:31:06.953Z,39.22
2024-04-18T14:33:33.880Z,41.39
2024-04-18T14:36:00.730Z,41.22
2024-04-18T14:38:27.703Z,41.69
2024-04-18T14:41:02.083Z,42.60
2024-04-18T14:43:36.541Z,44.24
2024-04-18T14:46:03.428Z,43.59
2024-04-18T14:48:30.218Z,43.67
2024-04-18T14:50:57.005Z,42.84
2024-04-18T14:53:26.795Z,44.36
2024-04-18T14:55:54.439Z,44.17
2024-04-18T14:58:21.179Z,43.07
2024-04-18T15:00:52.484Z,43.29
2024-04-18T15:03:20.267Z,43.49
2024-04-18T15:05:55.928Z,41.73
2024-04-18T15:08:23.327Z,43.21
2024-04-18T15:10:50.263Z,45.04
2024-04-18T15:13:17.148Z,46.78
2024-04-18T15:15:44.784Z,49.09
2024-04-18T15:18:15.064Z,50.22
2024-04-18T15:20:42.130Z,50.18
2024-04-18T15:23:09.961Z,51.03
2024-04-18T15:25:36.964Z,51.38
2024-04-18T15:28:03.925Z,50.78
2024-04-18T15:30:30.838Z,51.42
2024-04-18T15:32:57.746Z,51.52
2024-04-18T15:35:24.566Z,50.94
2024-04-18T15:37:51.357Z,51.02
2024-04-18T15:40:19.021Z,50.52
2024-04-18T15:42:45.860Z,50.64
2024-04-18T15:45:12.739Z,49.03
2024-04-18T15:47:39.697Z,48.90
2024-04-18T15:50:06.745Z,48.77
2024-04-18T15:52:34.902Z,47.90
2024-04-18T15:55:12.304Z,48.38
2024-04-18T15:57:43.286Z,48.51
2024-04-18T16:00:11.233Z,47.67
2024-04-18T16:02:38.309Z,47.78
2024-04-18T16:05:05.688Z,47.60
2024-04-18T16:07:32.603Z,47.25
2024-04-18T16:09:59.733Z,47.26
2024-04-18T16:12:26.927Z,47.18
2024-04-18T16:14:53.856Z,47.69
2024-04-18T16:17:20.689Z,47.39
2024-04-18T16:19:49.670Z,47.43
2024-04-18T16:22:16.848Z,47.11
2024-04-18T16:24:43.702Z,48.35
2024-04-18T16:27:10.584Z,48.04
2024-04-18T16:29:37.327Z,48.62
2024-04-18T16:32:04.360Z,48.99
2024-04-18T16:34:31.105Z,50.01
2024-04-18T16:37:09.234Z,49.40
2024-04-18T16:39:40.070Z,49.96
2024-04-18T16:42:07.619Z,49.28
2024-04-18T16:44:34.552Z,49.18
2024-04-18T16:47:01.379Z,49.21
2024-04-18T16:49:28.653Z,50.11
2024-04-18T16:51:55.573Z,49.68
2024-04-18T16:54:22.464Z,49.98
2024-04-18T16:56:49.318Z,50.12
2024-04-18T16:59:16.358Z,49.72
2024-04-18T17:01:43.153Z,50.01
2024-04-18T17:04:10.004Z,50.66
2024-04-18T17:06:45.473Z,50.88
2024-04-18T17:09:15.833Z,51.32
2024-04-18T17:11:42.785Z,51.84
2024-04-18T17:14:09.842Z,51.74
2024-04-18T17:16:36.720Z,52.27
2024-04-18T17:19:04.188Z,53.46
2024-04-18T17:21:31.305Z,53.56
2024-04-18T17:23:58.296Z,54.50
2024-04-18T17:26:27.445Z,55.29
2024-04-18T17:28:55.775Z,58.87
2024-04-18T17:31:22.694Z,57.55
2024-04-18T17:33:49.487Z,57.54
2024-04-18T17:36:16.374Z,59.68
2024-04-18T17:38:44.340Z,62.34
2024-04-18T17:41:11.163Z,63.87
2024-04-18T17:43:37.994Z,64.02
2024-04-18T17:46:05.366Z,64.69
2024-04-18T17:48:32.457Z,65.30
2024-04-18T17:50:59.343Z,65.47
2024-04-18T17:53:26.236Z,67.23
2024-04-18T17:55:54.880Z,67.98
2024-04-18T17:58:22.296Z,68.47
2024-04-18T18:00:49.673Z,69.50
2024-04-18T18:03:16.712Z,70.10
2024-04-18T18:05:43.811Z,70.28
2024-04-18T18:08:10.663Z,71.87
2024-04-18T18:10:37.755Z,71.04
2024-04-18T18:13:04.856Z,71.82
2024-04-18T18:15:31.999Z,72.19
2024-04-18T18:17:59.459Z,71.68
2024-04-18T18:20:26.348Z,72.83
2024-04-18T18:22:53.199Z,73.54
2024-04-18T18:25:20.009Z,74.16
2024-04-18T18:27:46.879Z,74.12
2024-04-18T18:30:14.829Z,74.32
2024-04-18T18:32:41.979Z,75.04
2024-04-18T18:35:09.730Z,75.09
2024-04-18T18:37:36.778Z,75.12
2024-04-18T18:40:03.920Z,75.83
2024-04-18T18:42:30.853Z,76.55
2024-04-18T18:44:57.707Z,76.46
2024-04-18T18:47:24.576Z,76.47
2024-04-18T18:49:51.426Z,77.47
2024-04-18T18:52:19.707Z,77.53
2024-04-18T18:54:46.627Z,78.20
2024-04-18T18:57:13.557Z,79.13
2024-04-18T18:59:43.919Z,79.04
2024-04-18T19:02:10.903Z,80.24
2024-04-18T19:04:37.812Z,80.05
2024-04-18T19:07:04.868Z,79.82
2024-04-18T19:09:32.906Z,80.09
2024-04-18T19:11:59.863Z,81.08
2024-04-18T19:14:28.131Z,80.87
2024-04-18T19:16:55.249Z,80.89
2024-04-18T19:19:24.304Z,80.66
2024-04-18T19:21:51.251Z,81.16
2024-04-18T19:24:18.228Z,81.75
2024-04-18T19:26:44.980Z,81.95
2024-04-18T19:29:14.231Z,81.86
2024-04-18T19:31:40.992Z,83.69
2024-04-18T19:34:07.825Z,83.13
2024-04-18T19:36:34.710Z,83.45
2024-04-18T19:39:01.494Z,82.79
2024-04-18T19:41:28.307Z,82.76
2024-04-18T19:43:55.583Z,83.75
2024-04-18T19:46:28.155Z,84.19
2024-04-18T19:48:56.144Z,84.36
2024-04-18T19:51:23.293Z,84.41
2024-04-18T19:53:50.047Z,84.61
2024-04-18T19:56:16.911Z,85.18
2024-04-18T19:58:43.795Z,85.22
2024-04-18T20:01:10.532Z,84.84
2024-04-18T20:03:37.451Z,84.76
2024-04-18T20:06:04.861Z,84.25
2024-04-18T20:08:31.758Z,84.12
2024-04-18T20:10:58.513Z,84.89
2024-04-18T20:13:25.301Z,84.80
2024-04-18T20:15:52.034Z,86.87
2024-04-18T20:18:18.957Z,88.23
2024-04-18T20:20:48.094Z,87.94
2024-04-18T20:23:15.344Z,87.63
2024-04-18T20:25:42.465Z,88.00
2024-04-18T20:28:09.248Z,87.73
2024-04-18T20:30:36.083Z,87.46
2024-04-18T20:33:02.882Z,87.63
2024-04-18T20:35:32.550Z,86.83
2024-04-18T20:37:59.414Z,87.04
2024-04-18T20:40:26.177Z,87.81
2024-04-18T20:42:53.009Z,87.58
2024-04-18T20:45:19.799Z,88.89
2024-04-18T20:47:46.733Z,88.39
2024-04-18T20:50:13.663Z,88.60
2024-04-18T20:52:40.440Z,88.71
2024-04-18T20:55:07.503Z,87.98
2024-04-18T20:57:34.322Z,89.20
2024-04-18T21:00:01.092Z,88.42
2024-04-18T21:02:28.426Z,88.34
2024-04-18T21:04:55.372Z,88.17
2024-04-18T21:07:23.447Z,88.29
2024-04-18T21:09:50.277Z,89.09
2024-04-18T21:12:17.507Z,89.71
2024-04-18T21:14:44.478Z,89.59
2024-04-18T21:17:11.275Z,89.09
2024-04-18T21:19:38.260Z,88.35
2024-04-18T21:22:06.853Z,87.72
2024-04-18T21:24:33.741Z,88.25
2024-04-18T21:27:00.622Z,89.52
2024-04-18T21:29:27.508Z,90.80
2024-04-18T21:31:54.231Z,90.19
2024-04-18T21:34:21.002Z,89.69
2024-04-18T21:36:47.820Z,89.93
2024-04-18T21:39:14.805Z,89.77
2024-04-18T21:41:43.027Z,89.83
2024-04-18T21:44:10.589Z,89.70
2024-04-18T21:46:37.413Z,88.99
2024-04-18T21:49:04.329Z,88.94
2024-04-18T21:51:31.364Z,89.04
2024-04-18T21:53:58.177Z,88.63
2024-04-18T21:56:25.029Z,88.49
2024-04-18T21:58:53.572Z,88.35
2024-04-18T22:01:20.462Z,87.94
2024-04-18T22:03:47.368Z,88.39
2024-04-18T22:06:14.292Z,87.60
2024-04-18T22:08:41.063Z,88.50
2024-04-18T22:11:07.876Z,88.00
2024-04-18T22:13:34.627Z,88.60
2024-04-18T22:16:01.398Z,88.22
2024-04-18T22:18:28.370Z,87.93
2024-04-18T22:20:57.744Z,87.14
2024-04-18T22:23:24.627Z,87.31
2024-04-18T22:25:51.593Z,88.18
2024-04-18T22:28:18.384Z,87.72
2024-04-18T22:30:45.381Z,87.69
2024-04-18T22:33:12.251Z,87.45
2024-04-18T22:35:40.351Z,87.55
2024-04-18T22:38:07.207Z,87.72
2024-04-18T22:40:34.107Z,87.34
2024-04-18T22:43:02.554Z,88.11
2024-04-18T22:45:29.402Z,89.64
2024-04-18T22:47:56.915Z,88.24
2024-04-18T22:50:23.844Z,87.79
2024-04-18T22:52:50.706Z,87.67
2024-04-18T22:55:17.594Z,87.59
2024-04-18T22:57:44.527Z,87.67
2024-04-18T23:00:11.995Z,87.75
2024-04-18T23:02:38.800Z,87.39
2024-04-18T23:05:05.888Z,87.81
2024-04-18T23:07:32.772Z,87.42
2024-04-18T23:10:00.621Z,87.67
2024-04-18T23:12:27.534Z,88.03
2024-04-18T23:14:54.334Z,88.46
2024-04-18T23:17:21.198Z,89.38
2024-04-18T23:19:48.056Z,88.88
2024-04-18T23:22:14.844Z,87.89
2024-04-18T23:24:41.763Z,88.75
2024-04-18T23:27:09.049Z,89.42
2024-04-18T23:29:35.957Z,89.42
2024-04-18T23:32:02.751Z,89.02
2024-04-18T23:34:29.522Z,89.61
2024-04-18T23:36:56.281Z,90.18
2024-04-18T23:39:23.127Z,89.86
2024-04-18T23:41:50.193Z,87.80
2024-04-18T23:44:17.053Z,88.56
2024-04-18T23:46:43.962Z,88.68
2024-04-18T23:49:10.860Z,89.42
2024-04-18T23:51:37.834Z,89.58
2024-04-18T23:54:04.604Z,88.67
2024-04-18T23:56:31.449Z,89.14
2024-04-18T23:58:59.345Z,90.57
